Date,TemperatureHighF,TemperatureAvgF,TemperatureLowF,DewpointHighF,DewpointAvgF,DewpointLowF,HumidityHigh,HumidityAvg,HumidityLow,PressureMaxIn,PressureMinIn,WindSpeedMaxMPH,WindSpeedAvgMPH,GustSpeedMaxMPH,PrecipitationSumIn
2013-1-1,38,31,23,36,29,20,93,92,89,30.43,30.19,5,2,11,0.00
2013-1-2,34,25,15,26,20,13,99,85,62,30.47,30.37,5,1,7,0.00
2013-1-3,42,30,20,32,24,17,91,79,54,30.63,30.45,6,1,10,0.01
2013-1-4,48,33,21,30,24,18,92,72,40,30.64,30.49,7,2,11,0.00
2013-1-5,44,37,29,35,30,23,92,76,69,30.49,30.32,13,4,22,0.00
2013-1-6,44,33,25,32,25,20,91,73,47,30.55,30.39,5,1,13,0.00
2013-1-7,51,38,26,31,26,21,82,64,43,30.51,30.27,13,4,18,0.00
2013-1-8,56,44,32,46,35,25,91,73,54,30.34,30.19,14,4,18,0.21
2013-1-9,55,51,47,47,43,38,92,77,56,30.47,30.32,15,5,27,0.05
2013-1-10,58,52,48,54,47,39,89,85,61,30.33,29.91,13,6,24,0.18
2013-1-11,66,56,46,48,46,42,92,71,50,30.00,29.82,17,10,26,0.00
2013-1-12,59,42,27,51,35,25,90,78,47,30.13,29.91,11,4,21,0.59
2013-1-13,27,22,15,25,19,12,90,87,83,30.56,30.12,0,0,0,0.00
2013-1-14,32,22,13,23,17,11,89,81,65,30.68,30.52,1,0,5,0.01
2013-1-15,33,25,18,24,18,15,89,78,49,30.52,30.35,3,0,8,0.00
2013-1-16,42,29,16,24,20,13,89,71,41,30.39,30.28,5,1,9,0.03
2013-1-17,48,36,27,34,26,20,85,69,45,30.65,30.38,8,1,17,0.00
2013-1-18,55,39,29,34,29,24,84,69,40,30.67,30.42,16,5,23,0.00
2013-1-19,62,48,39,40,35,30,77,60,41,30.34,30.20,14,6,19,0.00
2013-1-20,61,45,29,37,30,19,76,57,38,30.43,30.25,8,2,17,0.00
2013-1-21,38,29,22,19,16,13,75,60,42,30.56,30.42,6,1,12,0.00
2013-1-22,47,33,21,28,22,15,77,65,47,30.50,30.36,8,1,13,0.00
2013-1-23,62,44,30,44,35,23,84,72,51,30.42,30.28,7,2,15,0.00
2013-1-24,43,38,36,34,24,19,88,57,46,30.45,30.24,10,4,18,0.00
2013-1-25,47,38,33,34,32,29,91,77,57,30.42,30.25,4,1,13,0.00
2013-1-26,60,46,33,30,27,22,82,49,27,30.42,30.25,8,2,14,0.00
2013-1-27,60,54,46,56,49,30,88,83,51,30.25,30.01,17,11,27,0.01
2013-1-28,72,67,60,63,61,56,86,81,69,30.06,29.88,18,13,27,0.00
2013-1-29,69,60,44,63,55,42,91,86,71,29.88,29.55,16,8,27,2.11
2013-1-30,45,33,23,42,28,19,92,83,73,30.22,29.65,14,6,28,0.01
2013-1-31,45,29,19,31,22,11,88,75,52,30.63,30.18,11,3,20,0.00